Time;durP1;ratioP1;P1;durP2;ratioP2;P2;SDS_P1;SDS_P2;PMS_P1;PMS_P2;Temp;Humidity;BMP_temperature;BMP_pressure;BME280_temperature;BME280_humidity;BME280_pressure;Samples;Min_cycle;Max_cycle;Signal;HPM_P1;HPM_P2
2022/12/30 00:01:47;;;;;;;35.87;24.20;;;;;;;4.66;100.00;10522.31;5093068;28;20195;-66
2022/12/30 00:04:14;;;;;;;34.17;23.90;;;;;;;4.71;100.00;11793.75;5092918;28;20188;-66
2022/12/30 00:06:42;;;;;;;26.47;20.57;;;;;;;4.82;100.00;14339.06;5093183;28;20670;-66
2022/12/30 00:09:11;;;;;;;30.43;21.13;;;;;;;4.83;100.00;18157.00;5092770;28;20192;-66
2022/12/30 00:11:38;;;;;;;30.40;20.27;;;;;;;4.68;100.00;30960.78;5093141;28;20180;-66
2022/12/30 00:33:37;;;;;;;30.27;21.47;;;;;;;3.62;100.00;51319.78;5092420;28;20199;-66
2022/12/30 00:36:04;;;;;;;32.63;21.73;;;;;;;3.79;100.00;36923.22;5092703;28;20657;-67
2022/12/30 00:38:31;;;;;;;36.80;23.17;;;;;;;3.78;100.00;25755.94;5092357;28;20187;-66
2022/12/30 00:43:44;;;;;;;34.17;24.13;;;;;;;4.01;100.00;13998.72;5092772;28;20253;-66
2022/12/30 00:46:11;;;;;;;36.07;24.00;;;;;;;4.14;100.00;10828.19;5092399;28;20253;-66
2022/12/30 00:56:52;;;;;;;31.47;19.93;;;;;;;4.16;100.00;16544.19;5091949;28;20669;-67
2022/12/30 00:59:19;;;;;;;27.60;20.57;;;;;;;4.17;100.00;24181.03;5092340;28;20540;-67
2022/12/30 01:01:46;;;;;;;25.70;20.10;;;;;;;3.92;100.00;33736.84;5092275;28;20535;-67
2022/12/30 01:04:13;;;;;;;24.23;20.40;;;;;;;3.82;100.00;41722.16;5092235;28;20191;-68
2022/12/30 01:06:39;;;;;;;27.07;20.47;;;;;;;3.64;100.00;41389.31;5091844;28;20191;-66
2022/12/30 01:09:06;;;;;;;30.00;21.20;;;;;;;3.64;100.00;36274.41;5092004;28;20523;-66
2022/12/30 01:11:33;;;;;;;34.23;21.83;;;;;;;3.73;100.00;32448.59;5091646;28;20563;-67
2022/12/30 01:14:01;;;;;;;29.10;20.53;;;;;;;3.80;100.00;32771.56;5091936;28;20206;-66
2022/12/30 01:16:28;;;;;;;33.20;21.77;;;;;;;3.89;100.00;27991.81;5091870;28;20188;-66
2022/12/30 01:18:55;;;;;;;35.00;20.73;;;;;;;3.85;100.00;27352.59;5091928;28;20562;-65
2022/12/30 01:21:22;;;;;;;34.57;21.17;;;;;;;3.55;100.00;33395.28;5091814;28;20188;-66
2022/12/30 01:23:49;;;;;;;25.03;19.90;;;;;;;3.62;100.00;34038.16;5091945;28;20646;-66
2022/12/30 01:26:16;;;;;;;28.30;20.97;;;;;;;3.58;100.00;33077.97;5092125;28;20543;-66
2022/12/30 01:28:43;;;;;;;30.07;21.03;;;;;;;3.48;100.00;33710.19;5091496;28;20579;-67
2022/12/30 01:31:12;;;;;;;31.73;20.73;;;;;;;3.36;100.00;32746.22;5091826;28;20212;-67
2022/12/30 01:33:39;;;;;;;32.37;20.57;;;;;;;3.47;100.00;32114.44;5090220;28;20207;-67
2022/12/30 01:36:07;;;;;;;30.07;21.77;;;;;;;3.36;100.00;33702.91;5091269;28;20203;-66
2022/12/30 01:38:35;;;;;;;27.53;20.73;;;;;;;3.33;100.00;33382.09;5091389;28;20184;-66
2022/12/30 01:41:02;;;;;;;37.20;22.43;;;;;;;3.30;100.00;27961.97;5091558;28;20206;-66
2022/12/30 01:43:44;;;;;;;35.20;22.00;;;;;;;3.40;100.00;22874.66;5091436;28;20192;-66
2022/12/30 01:46:16;;;;;;;31.90;22.63;;;;;;;3.58;100.00;18113.84;5091403;28;20189;-66
2022/12/30 01:48:44;;;;;;;41.10;23.97;;;;;;;3.66;100.00;16846.00;5091433;28;20180;-66
2022/12/30 01:51:15;;;;;;;36.50;23.03;;;;;;;3.68;100.00;17799.59;5091625;28;20207;-66
2022/12/30 01:53:45;;;;;;;37.27;23.07;;;;;;;3.71;100.00;19707.44;5091517;28;20192;-67
2022/12/30 01:56:17;;;;;;;29.90;21.33;;;;;;;3.53;100.00;22562.09;5091615;28;20635;-67
2022/12/30 01:58:48;;;;;;;30.97;21.87;;;;;;;3.34;100.00;25735.34;5091779;28;20524;-66
2022/12/30 02:01:18;;;;;;;29.40;20.57;;;;;;;3.43;100.00;26057.94;5092762;28;20187;-66
2022/12/30 02:03:47;;;;;;;33.47;20.77;;;;;;;3.32;100.00;25416.38;5095215;28;20188;-67
2022/12/30 02:06:19;;;;;;;24.57;20.07;;;;;;;3.30;100.00;23506.41;5095046;28;20184;-68
2022/12/30 02:08:45;;;;;;;31.27;20.77;;;;;;;3.41;100.00;21921.31;5095304;28;20188;-67
2022/12/30 02:11:13;;;;;;;34.00;20.93;;;;;;;3.33;100.00;21918.03;5095220;28;20610;-68
2022/12/30 02:13:39;;;;;;;24.83;19.43;;;;;;;3.27;100.00;22551.38;5095328;28;20559;-66
2022/12/30 02:16:34;;;;;;;26.43;20.70;;;;;;;3.36;100.00;19694.34;5095243;28;20192;-66
2022/12/30 02:19:29;;;;;;;33.00;21.63;;;;;;;3.49;100.00;15888.09;5095228;28;20180;-66
2022/12/30 02:22:07;;;;;;;30.43;21.27;;;;;;;3.48;100.00;13032.50;5094789;28;20192;-66
2022/12/30 02:25:08;;;;;;;29.40;21.57;;;;;;;3.74;100.00;11453.28;5095024;28;20184;-66
2022/12/30 02:28:19;;;;;;;33.20;22.33;;;;;;;3.79;100.00;12088.69;5094774;28;20234;-67
2022/12/30 02:31:06;;;;;;;29.80;20.13;;;;;;;3.59;100.00;22564.63;5094630;28;20210;-66
2022/12/30 02:33:42;;;;;;;31.00;20.30;;;;;;;3.61;100.00;27345.81;5094950;28;20187;-65
2022/12/30 02:36:21;;;;;;;29.30;21.13;;;;;;;3.49;100.00;30516.47;5094490;28;20222;-65
2022/12/30 02:39:02;;;;;;;31.07;19.27;;;;;;;3.20;100.00;36909.63;5093360;28;20691;-66
2022/12/30 02:44:39;;;;;;;27.53;19.30;;;;;;;2.79;100.00;26345.81;5094542;28;20171;-66
2022/12/30 02:47:14;;;;;;;32.37;19.90;;;;;;;2.93;100.00;23172.84;5094231;28;20204;-66
2022/12/30 02:49:44;;;;;;;38.73;21.40;;;;;;;2.99;100.00;21268.88;5094399;28;20187;-66
2022/12/30 02:52:14;;;;;;;31.77;20.60;;;;;;;3.08;100.00;19684.25;5094191;28;20265;-65
2022/12/30 02:54:42;;;;;;;28.50;20.03;;;;;;;3.14;100.00;20321.75;5094509;28;20547;-66
2022/12/30 02:57:25;;;;;;;31.37;20.40;;;;;;;3.21;100.00;20642.16;5094387;28;20184;-66
2022/12/30 03:05:47;;;;;;;27.87;19.63;;;;;;;3.14;100.00;28302.31;5094152;28;20182;-66
2022/12/30 03:08:23;;;;;;;31.77;22.03;;;;;;;2.99;100.00;30295.00;5094160;28;20638;-66
2022/12/30 03:11:16;;;;;;;35.60;20.47;;;;;;;2.68;100.00;32184.06;5094224;28;20200;-66
2022/12/30 03:13:51;;;;;;;33.80;21.60;;;;;;;2.79;100.00;27299.84;5094133;28;20253;-66
2022/12/30 03:16:24;;;;;;;38.90;23.97;;;;;;;2.70;100.00;23798.41;5093747;28;20187;-66
2022/12/30 03:18:55;;;;;;;33.17;22.77;;;;;;;2.60;100.00;24429.47;5093591;28;20184;-65
2022/12/30 03:21:26;;;;;;;37.47;25.50;;;;;;;2.59;100.00;23158.41;5093863;28;20184;-67
2022/12/30 03:29:41;;;;;;;40.87;26.03;;;;;;;2.96;100.00;14920.66;5068575;28;20745;-66
2022/12/30 03:32:11;;;;;;;31.83;22.03;;;;;;;2.98;100.00;18410.72;5093592;28;20579;-66
2022/12/30 03:34:40;;;;;;;36.77;24.07;;;;;;;2.84;100.00;22024.69;5093937;28;20622;-66
2022/12/30 03:37:14;;;;;;;41.10;26.40;;;;;;;2.92;100.00;23857.78;5093773;28;20199;-66
2022/12/30 03:39:46;;;;;;;48.23;27.63;;;;;;;2.88;100.00;21264.47;5093290;28;20578;-66
2022/12/30 03:42:16;;;;;;;39.13;26.80;;;;;;;3.02;100.00;21915.22;5093701;28;20554;-66
2022/12/30 03:44:44;;;;;;;40.87;25.93;;;;;;;3.07;100.00;21907.56;5093569;28;20184;-66
2022/12/30 03:47:14;;;;;;;48.20;28.73;;;;;;;3.04;100.00;25773.56;5093197;28;20279;-66
2022/12/30 03:49:43;;;;;;;51.13;26.97;;;;;;;3.11;100.00;24452.28;5093445;28;20540;-67
2022/12/30 03:52:11;;;;;;;38.23;24.83;;;;;;;3.04;100.00;25801.13;5093255;28;20216;-67
2022/12/30 03:54:38;;;;;;;43.30;26.50;;;;;;;2.97;100.00;28913.09;5093151;28;20238;-66
2022/12/30 03:57:05;;;;;;;53.77;30.17;;;;;;;2.97;100.00;23810.31;5092908;28;20192;-65
2022/12/30 03:59:32;;;;;;;48.17;31.13;;;;;;;3.06;100.00;16509.47;5093276;28;20185;-66
2022/12/30 04:01:59;;;;;;;47.63;30.43;;;;;;;3.10;100.00;13656.53;5093524;28;20184;-65
2022/12/30 04:04:26;;;;;;;41.63;28.50;;;;;;;3.13;100.00;13023.41;5093112;28;20214;-66
2022/12/30 04:06:54;;;;;;;45.03;30.17;;;;;;;3.12;100.00;17463.41;5093152;28;20574;-68
2022/12/30 04:09:21;;;;;;;45.97;28.33;;;;;;;3.20;100.00;19053.53;5093329;28;20191;-67
2022/12/30 04:11:48;;;;;;;43.70;27.17;;;;;;;2.98;100.00;25385.78;5092897;28;20203;-67
2022/12/30 04:14:15;;;;;;;44.07;27.43;;;;;;;2.95;100.00;29496.63;5093123;28;20516;-66
2022/12/30 04:16:42;;;;;;;41.40;27.20;;;;;;;2.80;100.00;33390.44;5093271;28;20198;-67
2022/12/30 04:19:09;;;;;;;45.93;26.20;;;;;;;2.65;100.00;34029.03;5093240;28;20555;-66
2022/12/30 04:21:36;;;;;;;50.50;27.93;;;;;;;2.84;100.00;31590.69;5093578;28;20179;-67
2022/12/30 04:24:04;;;;;;;45.67;29.63;;;;;;;2.87;100.00;28895.41;5093142;28;20210;-67
2022/12/30 04:26:32;;;;;;;50.53;30.73;;;;;;;2.71;100.00;26341.94;5093937;28;20191;-65
2022/12/30 04:28:58;;;;;;;57.63;31.57;;;;;;;2.90;100.00;25078.94;5095626;28;20239;-70
2022/12/30 04:31:25;;;;;;;62.03;31.70;;;;;;;2.64;100.00;22842.69;5097692;28;20297;-68
2022/12/30 04:33:54;;;;;;;52.27;30.43;;;;;;;2.73;100.00;22528.88;5097456;28;20184;-68
2022/12/30 04:36:22;;;;;;;62.97;35.03;;;;;;;2.42;100.00;23150.88;5097349;28;20242;-65
2022/12/30 04:38:49;;;;;;;59.50;35.37;;;;;;;2.69;100.00;22527.38;5097098;28;20176;-66
2022/12/30 04:41:20;;;;;;;71.43;37.63;;;;;;;2.69;100.00;21574.41;5096054;28;20180;-67
2022/12/30 04:43:46;;;;;;;71.13;37.50;;;;;;;2.71;100.00;21257.69;5093898;28;20184;-66
2022/12/30 04:46:14;;;;;;;77.80;38.53;;;;;;;2.66;100.00;19668.59;5092933;28;20189;-66
2022/12/30 04:48:41;;;;;;;68.07;38.60;;;;;;;2.59;100.00;18714.19;5092751;28;20184;-66
2022/12/30 04:51:08;;;;;;;76.17;40.83;;;;;;;2.73;100.00;17450.44;5092597;28;20207;-67
2022/12/30 04:53:35;;;;;;;75.93;38.77;;;;;;;2.67;100.00;17131.13;5092476;28;20180;-67
2022/12/30 04:56:02;;;;;;;74.70;37.73;;;;;;;2.52;100.00;17126.31;5092389;28;20527;-66
2022/12/30 04:58:30;;;;;;;68.60;37.77;;;;;;;2.38;100.00;17121.53;5091955;28;20195;-67
2022/12/30 05:00:57;;;;;;;66.30;37.03;;;;;;;2.53;100.00;15858.59;5092253;28;20206;-67
2022/12/30 05:03:24;;;;;;;61.10;35.80;;;;;;;2.54;100.00;16809.97;5092297;28;20665;-65
2022/12/30 05:05:50;;;;;;;68.03;37.67;;;;;;;2.47;100.00;18192.06;5092187;28;20184;-65
2022/12/30 05:08:17;;;;;;;77.33;38.93;;;;;;;2.63;100.00;18398.38;5091807;28;20187;-67
2022/12/30 05:10:45;;;;;;;70.47;38.70;;;;;;;2.69;100.00;20731.25;5092104;28;20286;-67
2022/12/30 05:13:11;;;;;;;68.47;38.33;;;;;;;2.67;100.00;23003.03;5092051;28;20184;-67
2022/12/30 05:15:40;;;;;;;69.60;37.47;;;;;;;2.57;100.00;25227.56;5092238;28;20203;-68
2022/12/30 05:18:07;;;;;;;75.87;39.10;;;;;;;2.67;100.00;24147.34;5092011;28;20630;-67
2022/12/30 05:20:34;;;;;;;73.43;39.30;;;;;;;2.72;100.00;23638.13;5091957;28;20701;-68
2022/12/30 05:23:01;;;;;;;65.23;35.97;;;;;;;2.66;100.00;25748.34;5091587;28;20621;-67
2022/12/30 05:28:12;;;;;;;65.63;35.97;;;;;;;2.71;100.00;25969.31;5091751;28;20230;-67
2022/12/30 05:30:40;;;;;;;58.53;33.70;;;;;;;2.57;100.00;28817.47;5091712;28;20187;-67
2022/12/30 05:33:07;;;;;;;68.77;34.53;;;;;;;2.25;100.00;26166.28;5091582;28;20191;-67
2022/12/30 05:35:33;;;;;;;62.53;31.83;;;;;;;2.36;100.00;22831.00;5092211;28;20188;-66
2022/12/30 05:38:00;;;;;;;80.33;33.10;;;;;;;2.28;100.00;20923.63;5095944;28;20184;-66
2022/12/30 05:40:27;;;;;;;64.00;32.17;;;;;;;2.39;100.00;20293.16;5095866;28;20192;-66
2022/12/30 05:42:54;;;;;;;66.27;35.83;;;;;;;2.47;100.00;19661.69;5095750;28;20194;-66
2022/12/30 05:45:21;;;;;;;72.87;33.93;;;;;;;2.36;100.00;20609.09;5096034;28;20205;-68
2022/12/30 05:47:49;;;;;;;74.30;38.37;;;;;;;2.48;100.00;19662.06;5095528;28;20192;-67
2022/12/30 05:50:16;;;;;;;80.43;39.67;;;;;;;2.47;100.00;19978.75;5095902;28;20188;-66
2022/12/30 05:52:43;;;;;;;60.90;32.60;;;;;;;2.56;100.00;19982.34;5095828;28;20581;-67
2022/12/30 05:55:10;;;;;;;61.27;31.20;;;;;;;2.81;100.00;16818.59;5095470;28;20657;-68
2022/12/30 05:57:37;;;;;;;57.97;30.00;;;;;;;2.95;100.00;14603.19;5095806;28;20196;-65
2022/12/30 06:00:04;;;;;;;59.70;31.50;;;;;;;3.09;100.00;12705.44;5095528;28;20191;-65
2022/12/30 06:02:33;;;;;;;59.17;31.67;;;;;;;3.25;100.00;11758.50;5095626;28;20188;-64
2022/12/30 06:05:01;;;;;;;60.93;31.93;;;;;;;3.35;100.00;11760.94;5095481;28;20184;-65
2022/12/30 06:07:28;;;;;;;52.27;30.93;;;;;;;3.58;100.00;11449.59;5095273;28;20192;-63
2022/12/30 06:09:55;;;;;;;55.77;31.83;;;;;;;3.80;100.00;11137.44;5095312;28;20195;-64
2022/12/30 06:12:22;;;;;;;62.50;32.47;;;;;;;4.16;100.00;9242.56;5094887;28;20214;-65
2022/12/30 06:14:49;;;;;;;47.67;30.13;;;;;;;4.15;100.00;10828.31;5094968;28;20188;-65
2022/12/30 06:17:16;;;;;;;52.80;28.97;;;;;;;4.86;100.00;15313.97;5095029;28;20559;-64
2022/12/30 06:19:42;;;;;;;64.33;31.30;;;;;;;5.19;100.00;22897.88;5095361;28;20670;-64
2022/12/30 06:22:11;;;;;;;45.50;27.50;;;;;;;5.59;100.00;35428.38;5094522;28;20180;-65
2022/12/30 06:24:38;;;;;;;53.27;26.57;;;;;;;5.88;100.00;52487.59;5094731;28;20187;-65
2022/12/30 06:27:04;;;;;;;46.13;26.27;;;;;;;6.26;100.00;69649.00;5095066;28;20251;-65
2022/12/30 06:29:31;;;;;;;44.30;26.87;;;;;;;6.66;100.00;101288.25;5094595;28;20199;-65
2022/12/30 06:31:58;;;;;;;46.40;29.70;;;;;;;7.27;100.00;124517.69;5094679;28;20204;-65
2022/12/30 06:34:25;;;;;;;54.60;28.93;;;;;;;7.48;100.00;147926.88;5094670;28;20188;-65
2022/12/30 06:36:52;;;;;;;41.07;27.97;;;;;;;7.85;100.00;148018.91;5094752;28;20203;-64
2022/12/30 06:39:20;;;;;;;47.70;31.87;;;;;;;8.04;100.00;148065.59;5094901;28;20184;-64
2022/12/30 06:41:47;;;;;;;51.93;33.20;;;;;;;8.22;100.00;148112.31;5093323;28;20180;-66
2022/12/30 06:44:14;;;;;;;57.37;31.57;;;;;;;8.48;100.00;148175.44;5094342;28;20191;-65
2022/12/30 06:46:41;;;;;;;49.93;30.67;;;;;;;9.02;100.00;148311.75;5093675;28;20241;-65
2022/12/30 06:49:08;;;;;;;46.83;30.50;;;;;;;9.41;100.00;148408.97;5094138;28;20203;-65
2022/12/30 06:51:35;;;;;;;52.00;31.40;;;;;;;9.98;100.00;148550.41;5094064;28;20299;-65
2022/12/30 06:54:02;;;;;;;50.67;31.93;;;;;;;10.61;100.00;148708.44;5094110;28;20219;-65
2022/12/30 06:56:30;;;;;;;45.23;31.53;;;;;;;11.26;100.00;148870.28;5094249;28;20188;-64
2022/12/30 06:58:57;;;;;;;40.03;31.30;;;;;;;11.62;100.00;148961.38;5094646;28;20261;-65
2022/12/30 07:01:24;;;;;;;43.43;30.97;;;;;;;12.35;100.00;149143.63;5094068;28;20587;-65
2022/12/30 07:03:51;;;;;;;44.83;32.03;;;;;;;12.07;100.00;149074.03;5094244;28;20191;-65
2022/12/30 07:06:18;;;;;;;41.13;31.30;;;;;;;11.91;100.00;149033.53;5094514;28;20622;-65
2022/12/30 07:08:45;;;;;;;39.50;30.47;;;;;;;12.44;100.00;149166.41;5094292;28;20561;-64
2022/12/30 07:11:11;;;;;;;37.03;27.33;;;;;;;12.66;100.00;149220.84;5092803;28;20203;-65
2022/12/30 07:13:40;;;;;;;32.20;26.93;;;;;;;12.64;100.00;149215.81;5093792;28;20195;-65
2022/12/30 07:16:07;;;;;;;34.93;26.23;;;;;;;13.22;100.00;149361.47;5093841;28;20646;-64
2022/12/30 07:18:34;;;;;;;41.97;26.10;;;;;;;13.28;100.00;149376.72;5093669;28;20208;-64
2022/12/30 07:21:01;;;;;;;45.93;25.80;;;;;;;13.11;100.00;149334.84;5094104;28;20560;-64
2022/12/30 07:23:28;;;;;;;42.87;26.60;;;;;;;13.51;100.00;149434.94;5093913;28;20235;-64
2022/12/30 07:25:54;;;;;;;36.00;26.23;;;;;;;13.44;100.00;149415.97;5093836;28;20188;-65
2022/12/30 07:28:21;;;;;;;38.50;26.37;;;;;;;13.73;100.00;149489.44;5093529;28;20702;-64
2022/12/30 07:30:50;;;;;;;57.17;29.33;;;;;;;14.03;100.00;149565.50;5093125;28;20188;-64
2022/12/30 07:33:16;;;;;;;57.93;32.67;;;;;;;13.96;100.00;149547.72;5093713;28;20556;-64
2022/12/30 07:35:43;;;;;;;48.57;31.40;;;;;;;13.72;100.00;149486.91;5093545;28;20200;-64
2022/12/30 07:38:10;;;;;;;55.40;39.07;;;;;;;14.10;100.00;149581.94;5093638;28;20655;-64
2022/12/30 07:40:37;;;;;;;69.30;48.27;;;;;;;14.92;100.00;149787.41;5093598;28;20282;-64
2022/12/30 07:43:04;;;;;;;64.97;46.50;;;;;;;15.74;100.00;149993.00;5093352;28;20396;-64
2022/12/30 07:45:31;;;;;;;76.13;49.03;;;;;;;15.87;100.00;150027.25;5093187;28;20188;-63
2022/12/30 07:48:00;;;;;;;79.47;51.33;;;;;;;15.98;97.48;150053.94;5093566;28;20586;-64
2022/12/30 07:50:27;;;;;;;87.70;51.43;;;;;;;15.87;98.79;150027.25;5092915;28;20184;-64
2022/12/30 07:52:54;;;;;;;87.57;52.13;;;;;;;16.05;96.28;150071.69;5093168;28;20208;-64
2022/12/30 07:55:21;;;;;;;79.37;51.90;;;;;;;16.82;93.35;150264.75;5093270;28;20551;-63
2022/12/30 07:57:48;;;;;;;89.30;51.67;;;;;;;16.24;92.21;150118.66;5093074;28;20199;-64
2022/12/30 08:00:16;;;;;;;80.60;49.60;;;;;;;17.32;88.05;150390.50;5092549;28;20188;-64
2022/12/30 08:02:43;;;;;;;88.83;50.70;;;;;;;17.69;88.42;150484.63;5093052;28;20242;-64
2022/12/30 08:05:11;;;;;;;79.87;49.90;;;;;;;18.52;83.41;150693.16;5092750;28;20190;-64
2022/12/30 08:07:38;;;;;;;84.93;51.47;;;;;;;19.33;75.84;150896.69;5091727;28;20230;-64
2022/12/30 08:10:05;;;;;;;84.03;49.80;;;;;;;18.17;81.33;150604.06;5092807;28;20199;-64
2022/12/30 08:12:35;;;;;;;86.80;50.30;;;;;;;17.73;89.63;150493.50;5092805;28;20200;-63
2022/12/30 08:15:02;;;;;;;77.33;37.90;;;;;;;17.93;91.10;150543.06;5093065;28;20550;-64
2022/12/30 08:17:29;;;;;;;56.73;28.63;;;;;;;18.45;89.55;150675.31;5092535;28;20184;-63
2022/12/30 08:19:55;;;;;;;47.50;23.33;;;;;;;18.71;88.48;150740.22;5092683;28;20199;-63
2022/12/30 08:22:24;;;;;;;53.37;23.33;;;;;;;19.00;85.64;150814.00;5092603;28;20245;-62
2022/12/30 08:24:51;;;;;;;53.20;32.83;;;;;;;18.21;92.87;150614.25;5092201;28;20191;-62
2022/12/30 08:27:17;;;;;;;80.57;52.40;;;;;;;18.51;86.67;150690.53;5092427;28;20228;-62
2022/12/30 08:29:44;;;;;;;79.87;53.03;;;;;;;18.74;85.13;150746.56;5092428;28;20198;-63
2022/12/30 08:32:11;;;;;;;73.70;49.17;;;;;;;19.07;83.67;150830.53;5092178;28;20219;-63
2022/12/30 08:34:38;;;;;;;83.33;50.07;;;;;;;18.45;91.13;150675.31;5093107;28;20193;-63
2022/12/30 08:37:05;;;;;;;51.53;36.80;;;;;;;19.57;86.24;150957.81;5092491;28;20519;-63
2022/12/30 08:39:33;;;;;;;94.77;53.47;;;;;;;21.33;72.97;151401.09;5092139;28;20188;-65
2022/12/30 08:42:00;;;;;;;73.18;46.33;;;;;;;21.60;66.84;151468.59;5092359;28;20184;-66
2022/12/30 08:44:27;;;;;;;60.15;43.22;;;;;;;21.08;70.01;151336.06;5092360;28;20219;-63
2022/12/30 08:46:54;;;;;;;60.85;40.90;;;;;;;20.87;72.71;151285.13;5091003;28;20571;-63
2022/12/30 08:49:21;;;;;;;66.30;40.58;;;;;;;21.46;69.71;151431.69;5092336;28;20559;-63
2022/12/30 08:51:50;;;;;;;55.72;36.53;;;;;;;21.13;69.98;151350.09;5092383;28;20267;-64
2022/12/30 08:54:17;;;;;;;44.03;26.92;;;;;;;20.61;71.91;151218.88;5092571;28;20599;-64
2022/12/30 08:56:48;;;;;;;23.70;18.65;;;;;;;20.93;68.46;151299.09;5092786;28;20210;-64
2022/12/30 08:59:15;;;;;;;18.08;16.63;;;;;;;22.32;61.11;151649.69;5092249;28;20685;-63
2022/12/30 09:01:42;;;;;;;20.55;17.17;;;;;;;22.77;58.31;151763.25;5091967;28;20196;-63
2022/12/30 09:04:10;;;;;;;28.58;19.77;;;;;;;22.98;57.65;151815.56;5092275;28;20567;-64
2022/12/30 09:06:40;;;;;;;23.40;18.35;;;;;;;24.29;52.49;152147.47;5090654;28;20199;-63
2022/12/30 09:09:08;;;;;;;23.48;18.15;;;;;;;25.02;49.49;152332.72;5091837;28;20198;-63
2022/12/30 09:11:37;;;;;;;31.70;19.60;;;;;;;24.49;49.42;152197.25;5092089;28;20188;-62
2022/12/30 09:14:07;;;;;;;35.60;21.27;;;;;;;23.52;51.54;151953.41;5091632;28;20574;-63
2022/12/30 09:16:34;;;;;;;37.95;22.17;;;;;;;23.54;52.73;151958.53;5091707;28;20184;-63
2022/12/30 09:19:01;;;;;;;32.88;22.55;;;;;;;23.85;51.35;152035.13;5091878;28;20180;-63
2022/12/30 09:21:28;;;;;;;27.15;21.88;;;;;;;23.99;51.01;152070.81;5091632;28;20226;-63
2022/12/30 09:23:56;;;;;;;31.98;22.85;;;;;;;24.37;50.47;152167.91;5091935;28;20191;-63
2022/12/30 09:26:25;;;;;;;40.38;31.23;;;;;;;24.42;51.65;152179.41;5091407;28;20184;-63
2022/12/30 09:28:53;;;;;;;39.83;30.88;;;;;;;24.45;52.45;152188.34;5091650;28;20236;-63
2022/12/30 09:31:22;;;;;;;40.97;32.20;;;;;;;24.39;52.13;152173.03;5091514;28;20188;-63
2022/12/30 09:33:49;;;;;;;35.20;29.98;;;;;;;24.69;50.27;152247.09;5091642;28;20207;-62
2022/12/30 09:36:16;;;;;;;55.20;32.80;;;;;;;24.41;51.38;152176.84;5091445;28;20207;-63
2022/12/30 09:38:43;;;;;;;36.58;29.95;;;;;;;22.76;56.40;151761.97;5092196;28;20249;-63
2022/12/30 09:41:16;;;;;;;42.22;28.88;;;;;;;23.27;56.26;151888.28;5091765;28;20188;-62
2022/12/30 09:43:55;;;;;;;46.90;29.77;;;;;;;23.50;55.27;151947.03;5091700;28;20271;-63
2022/12/30 09:46:33;;;;;;;45.67;31.27;;;;;;;23.20;55.32;151871.69;5091345;28;20187;-62
2022/12/30 09:49:02;;;;;;;36.35;28.95;;;;;;;22.32;58.13;151650.97;5091787;28;20183;-62
2022/12/30 09:51:33;;;;;;;36.25;27.95;;;;;;;22.37;58.88;151661.16;5091713;28;20279;-62
2022/12/30 09:54:04;;;;;;;38.85;27.17;;;;;;;21.76;60.27;151508.16;5091555;28;20204;-63
2022/12/30 09:56:34;;;;;;;38.17;25.63;;;;;;;22.16;59.77;151610.16;5091500;28;20188;-63
2022/12/30 09:59:05;;;;;;;29.65;26.27;;;;;;;22.34;59.22;151654.81;5091410;28;20195;-63
2022/12/30 10:01:39;;;;;;;31.35;26.08;;;;;;;22.55;58.61;151707.09;5091545;28;20559;-63
2022/12/30 10:04:15;;;;;;;27.88;25.05;;;;;;;23.55;54.62;151961.03;5091737;28;20192;-63
2022/12/30 10:06:51;;;;;;;31.25;24.48;;;;;;;23.62;55.47;151977.66;5091634;28;20606;-63
2022/12/30 10:09:43;;;;;;;24.60;21.75;;;;;;;24.00;52.70;152074.69;5091451;28;20180;-63
2022/12/30 10:12:27;;;;;;;22.63;20.40;;;;;;;24.44;50.88;152185.78;5091428;28;20624;-63
2022/12/30 10:15:07;;;;;;;19.27;17.48;;;;;;;23.79;51.65;152019.78;5090990;28;20195;-63
2022/12/30 10:17:56;;;;;;;26.80;18.30;;;;;;;23.20;53.65;151871.69;5091170;28;20596;-63
2022/12/30 10:20:38;;;;;;;19.50;17.88;;;;;;;23.45;53.03;151935.56;5091448;28;20186;-66
2022/12/30 10:23:14;;;;;;;19.77;17.45;;;;;;;23.94;51.77;152058.06;5093837;28;20253;-66
2022/12/30 10:25:46;;;;;;;20.08;18.15;;;;;;;24.37;50.45;152166.63;5095481;28;20644;-63
2022/12/30 10:28:15;;;;;;;25.35;18.70;;;;;;;25.23;48.40;152383.81;5095083;28;20322;-63
2022/12/30 10:30:48;;;;;;;21.05;18.30;;;;;;;25.24;48.33;152386.38;5094749;28;20184;-64
2022/12/30 10:33:19;;;;;;;22.60;18.88;;;;;;;25.24;47.67;152386.38;5094824;28;20204;-64
2022/12/30 10:35:48;;;;;;;24.10;19.48;;;;;;;25.69;46.50;152501.44;5094896;28;20200;-63
2022/12/30 10:38:17;;;;;;;34.28;20.63;;;;;;;25.98;46.40;152574.28;5093412;28;20196;-62
2022/12/30 10:40:55;;;;;;;21.98;19.60;;;;;;;25.88;46.06;152550.03;5094817;28;20199;-62
2022/12/30 10:43:38;;;;;;;23.20;20.85;;;;;;;25.82;46.00;152534.66;5094476;28;20187;-63
2022/12/30 10:46:29;;;;;;;16.58;15.13;;;;;;;25.76;44.98;152518.03;5094858;28;20184;-63
2022/12/30 10:49:17;;;;;;;12.63;11.40;;;;;;;25.92;43.67;152560.25;5090100;28;20603;-63
2022/12/30 10:51:45;;;;;;;11.65;10.77;;;;;;;25.73;43.75;152511.66;5094075;28;20586;-62
2022/12/30 10:54:12;;;;;;;11.40;10.80;;;;;;;25.69;43.47;152501.44;5094093;28;20239;-63
2022/12/30 10:56:40;;;;;;;11.40;10.57;;;;;;;25.74;43.79;152512.94;5094593;28;20615;-63
2022/12/30 10:59:12;;;;;;;13.05;12.20;;;;;;;26.09;43.18;152601.13;5094460;28;20766;-62
2022/12/30 11:01:41;;;;;;;14.02;13.00;;;;;;;26.22;43.40;152634.44;5094018;28;20180;-63
2022/12/30 11:04:34;;;;;;;14.32;12.95;;;;;;;26.63;42.52;152737.97;5094289;28;20184;-62
2022/12/30 11:07:03;;;;;;;13.20;12.50;;;;;;;27.04;41.66;152842.88;5094277;28;20225;-63
2022/12/30 11:09:30;;;;;;;13.60;12.50;;;;;;;26.45;41.62;152691.94;5093883;28;20313;-63
2022/12/30 11:14:45;;;;;;;14.55;13.38;;;;;;;27.30;41.27;152906.84;5093765;28;20199;-64
2022/12/30 11:17:25;;;;;;;17.83;13.43;;;;;;;28.15;39.94;153124.50;5093941;28;20184;-61
2022/12/30 11:19:56;;;;;;;16.98;12.55;;;;;;;28.93;38.51;153320.44;5094115;28;20530;-62
2022/12/30 11:22:24;;;;;;;13.23;11.98;;;;;;;27.95;39.03;153071.97;5093637;28;20200;-63
2022/12/30 11:24:59;;;;;;;13.57;12.35;;;;;;;27.77;39.43;153025.91;5093852;28;20563;-62
2022/12/30 11:27:37;;;;;;;11.98;11.48;;;;;;;27.55;39.93;152972.16;5093794;28;20230;-62
2022/12/30 11:30:05;;;;;;;14.27;13.05;;;;;;;27.53;40.40;152965.78;5093674;28;20183;-63
2022/12/30 11:32:33;;;;;;;14.48;13.20;;;;;;;27.38;40.26;152928.59;5093060;28;20188;-63
2022/12/30 11:35:02;;;;;;;14.80;13.98;;;;;;;25.99;42.08;152576.84;5092811;28;20192;-62
2022/12/30 11:37:34;;;;;;;14.68;13.43;;;;;;;25.68;43.39;152498.84;5093922;28;20239;-63
2022/12/30 11:40:26;;;;;;;17.20;15.43;;;;;;;24.85;45.07;152287.97;5093798;28;20192;-62
2022/12/30 11:43:13;;;;;;;16.58;14.85;;;;;;;23.54;48.90;151957.25;5093915;28;20180;-62
2022/12/30 11:46:09;;;;;;;14.05;12.82;;;;;;;22.04;53.42;151578.28;5093829;28;20268;-62
2022/12/30 11:48:39;;;;;;;21.27;14.18;;;;;;;20.96;59.35;151306.78;5058589;28;20575;-64
2022/12/30 11:51:17;;;;;;;17.85;14.55;;;;;;;20.35;63.58;151152.66;5093667;28;20199;-63
2022/12/30 11:53:44;;;;;;;16.47;14.47;;;;;;;19.84;68.89;151024.00;5093915;28;20574;-63
2022/12/30 11:56:11;;;;;;;18.20;14.40;;;;;;;19.26;75.35;150878.88;5093987;28;20550;-63
2022/12/30 11:58:41;;;;;;;14.53;13.10;;;;;;;18.79;81.31;150759.28;5093931;28;20183;-62
2022/12/30 12:01:10;;;;;;;16.33;15.10;;;;;;;18.50;83.39;150686.75;5093774;28;20232;-62
2022/12/30 12:03:48;;;;;;;20.23;15.90;;;;;;;18.16;90.39;150602.81;5094920;28;20184;-62
2022/12/30 12:06:17;;;;;;;17.63;15.93;;;;;;;17.70;95.47;150485.84;5094565;28;20184;-62
2022/12/30 12:08:56;;;;;;;16.73;15.23;;;;;;;17.60;95.84;150460.47;5096173;28;20202;-61
2022/12/30 12:11:27;;;;;;;32.60;16.57;;;;;;;17.78;94.49;150507.47;5096384;28;20585;-63
2022/12/30 12:14:03;;;;;;;13.90;12.73;;;;;;;17.24;96.59;150370.16;5094580;28;20212;-62
2022/12/30 12:16:38;;;;;;;16.67;14.27;;;;;;;17.35;94.77;150398.16;5095861;28;20237;-63